sensor_id;sensor_type;location;lat;lon;timestamp;temperature;humidity
53310;DHT22;39197;53.200;5.792;2022-11-20T00:00:57;1.30;99.90
53310;DHT22;39197;53.200;5.792;2022-11-20T00:03:29;1.20;99.90
53310;DHT22;39197;53.200;5.792;2022-11-20T00:06:00;1.20;99.90
53310;DHT22;39197;53.200;5.792;2022-11-20T00:08:25;1.20;99.90
53310;DHT22;39197;53.200;5.792;2022-11-20T00:10:51;1.20;99.90
53310;DHT22;39197;53.200;5.792;2022-11-20T00:13:16;1.20;99.90
53310;DHT22;39197;53.200;5.792;2022-11-20T00:15:42;1.20;99.90
53310;DHT22;39197;53.200;5.792;2022-11-20T00:18:07;1.20;99.90
53310;DHT22;39197;53.200;5.792;2022-11-20T00:20:33;1.20;99.90
53310;DHT22;39197;53.200;5.792;2022-11-20T00:22:59;1.20;99.90
53310;DHT22;39197;53.200;5.792;2022-11-20T00:25:24;1.20;99.90
53310;DHT22;39197;53.200;5.792;2022-11-20T00:27:50;1.20;99.90
53310;DHT22;39197;53.200;5.792;2022-11-20T00:30:16;1.40;99.90
53310;DHT22;39197;53.200;5.792;2022-11-20T00:32:41;1.40;99.90
53310;DHT22;39197;53.200;5.792;2022-11-20T00:35:07;1.40;99.90
53310;DHT22;39197;53.200;5.792;2022-11-20T00:37:32;1.30;99.90
53310;DHT22;39197;53.200;5.792;2022-11-20T00:39:58;1.30;99.90
53310;DHT22;39197;53.200;5.792;2022-11-20T00:42:24;1.30;99.90
53310;DHT22;39197;53.200;5.792;2022-11-20T00:44:49;1.30;99.90
53310;DHT22;39197;53.200;5.792;2022-11-20T00:47:15;1.30;99.90
53310;DHT22;39197;53.200;5.792;2022-11-20T00:49:40;1.30;99.90
53310;DHT22;39197;53.200;5.792;2022-11-20T00:52:06;1.30;99.90
53310;DHT22;39197;53.200;5.792;2022-11-20T00:54:31;1.40;99.90
53310;DHT22;39197;53.200;5.792;2022-11-20T00:56:57;1.40;99.90
53310;DHT22;39197;53.200;5.792;2022-11-20T00:59:22;1.40;99.90
53310;DHT22;39197;53.200;5.792;2022-11-20T01:01:48;1.40;99.90
53310;DHT22;39197;53.200;5.792;2022-11-20T01:04:14;1.40;99.90
53310;DHT22;39197;53.200;5.792;2022-11-20T01:06:39;1.40;99.90
53310;DHT22;39197;53.200;5.792;2022-11-20T01:09:09;1.40;99.90
53310;DHT22;39197;53.200;5.792;2022-11-20T01:11:38;1.30;99.90
53310;DHT22;39197;53.200;5.792;2022-11-20T01:14:06;1.30;99.90
53310;DHT22;39197;53.200;5.792;2022-11-20T01:16:34;1.30;99.90
53310;DHT22;39197;53.200;5.792;2022-11-20T01:19:02;1.30;99.90
53310;DHT22;39197;53.200;5.792;2022-11-20T01:21:31;1.20;99.90
53310;DHT22;39197;53.200;5.792;2022-11-20T01:23:57;1.20;99.90
53310;DHT22;39197;53.200;5.792;2022-11-20T01:26:26;1.20;99.90
53310;DHT22;39197;53.200;5.792;2022-11-20T01:28:52;1.20;99.90
53310;DHT22;39197;53.200;5.792;2022-11-20T01:31:21;1.20;99.90
53310;DHT22;39197;53.200;5.792;2022-11-20T01:33:49;1.20;99.90
53310;DHT22;39197;53.200;5.792;2022-11-20T01:36:16;1.20;99.90
53310;DHT22;39197;53.200;5.792;2022-11-20T01:38:42;1.10;99.90
53310;DHT22;39197;53.200;5.792;2022-11-20T01:41:09;1.20;99.90
53310;DHT22;39197;53.200;5.792;2022-11-20T01:43:36;1.20;99.90
53310;DHT22;39197;53.200;5.792;2022-11-20T01:46:03;1.20;99.90
53310;DHT22;39197;53.200;5.792;2022-11-20T01:48:40;1.10;99.90
53310;DHT22;39197;53.200;5.792;2022-11-20T01:51:21;1.10;99.90
53310;DHT22;39197;53.200;5.792;2022-11-20T01:53:51;1.20;99.90
53310;DHT22;39197;53.200;5.792;2022-11-20T01:56:18;1.30;99.90
53310;DHT22;39197;53.200;5.792;2022-11-20T01:58:51;1.30;99.90
53310;DHT22;39197;53.200;5.792;2022-11-20T02:01:17;1.30;99.90
53310;DHT22;39197;53.200;5.792;2022-11-20T02:03:43;1.30;99.90
53310;DHT22;39197;53.200;5.792;2022-11-20T02:06:59;1.20;99.90
53310;DHT22;39197;53.200;5.792;2022-11-20T02:09:04;1.30;99.90
53310;DHT22;39197;53.200;5.792;2022-11-20T02:11:31;1.20;99.90
53310;DHT22;39197;53.200;5.792;2022-11-20T02:13:56;1.20;99.90
53310;DHT22;39197;53.200;5.792;2022-11-20T02:16:29;1.20;99.90
53310;DHT22;39197;53.200;5.792;2022-11-20T02:18:59;1.20;99.90
53310;DHT22;39197;53.200;5.792;2022-11-20T02:21:40;1.20;99.90
53310;DHT22;39197;53.200;5.792;2022-11-20T02:24:16;1.30;99.90
53310;DHT22;39197;53.200;5.792;2022-11-20T02:27:19;1.30;99.90
53310;DHT22;39197;53.200;5.792;2022-11-20T02:32:35;1.20;99.90
53310;DHT22;39197;53.200;5.792;2022-11-20T02:38:01;1.10;99.90
53310;DHT22;39197;53.200;5.792;2022-11-20T02:40:28;1.10;99.90
53310;DHT22;39197;53.200;5.792;2022-11-20T02:42:55;1.10;99.90
53310;DHT22;39197;53.200;5.792;2022-11-20T02:45:21;1.10;99.90
53310;DHT22;39197;53.200;5.792;2022-11-20T02:47:48;1.10;99.90
53310;DHT22;39197;53.200;5.792;2022-11-20T02:50:13;1.10;99.90
53310;DHT22;39197;53.200;5.792;2022-11-20T02:52:39;1.10;99.90
53310;DHT22;39197;53.200;5.792;2022-11-20T02:55:05;1.10;99.90
53310;DHT22;39197;53.200;5.792;2022-11-20T02:57:30;1.10;99.90
53310;DHT22;39197;53.200;5.792;2022-11-20T02:59:56;1.10;99.90
53310;DHT22;39197;53.200;5.792;2022-11-20T03:02:22;1.10;99.90
53310;DHT22;39197;53.200;5.792;2022-11-20T03:04:47;1.10;99.90
53310;DHT22;39197;53.200;5.792;2022-11-20T03:07:13;1.10;99.90
53310;DHT22;39197;53.200;5.792;2022-11-20T03:09:38;1.10;99.90
53310;DHT22;39197;53.200;5.792;2022-11-20T03:12:04;1.20;99.90
53310;DHT22;39197;53.200;5.792;2022-11-20T03:14:30;1.10;99.90
53310;DHT22;39197;53.200;5.792;2022-11-20T03:16:56;1.10;99.90
53310;DHT22;39197;53.200;5.792;2022-11-20T03:19:22;1.20;99.90
53310;DHT22;39197;53.200;5.792;2022-11-20T03:21:47;1.20;99.90
53310;DHT22;39197;53.200;5.792;2022-11-20T03:24:13;1.20;99.90
53310;DHT22;39197;53.200;5.792;2022-11-20T03:26:39;1.20;99.90
53310;DHT22;39197;53.200;5.792;2022-11-20T03:29:05;1.10;99.90
53310;DHT22;39197;53.200;5.792;2022-11-20T03:31:37;1.20;99.90
53310;DHT22;39197;53.200;5.792;2022-11-20T03:34:03;1.20;99.90
53310;DHT22;39197;53.200;5.792;2022-11-20T03:36:30;1.10;99.90
53310;DHT22;39197;53.200;5.792;2022-11-20T03:38:56;1.20;99.90
53310;DHT22;39197;53.200;5.792;2022-11-20T03:41:24;1.20;99.90
53310;DHT22;39197;53.200;5.792;2022-11-20T03:44:01;1.20;99.90
53310;DHT22;39197;53.200;5.792;2022-11-20T03:46:27;1.10;99.90
53310;DHT22;39197;53.200;5.792;2022-11-20T03:48:54;1.10;99.90
53310;DHT22;39197;53.200;5.792;2022-11-20T03:51:27;1.10;99.90
53310;DHT22;39197;53.200;5.792;2022-11-20T03:53:55;1.10;99.90
53310;DHT22;39197;53.200;5.792;2022-11-20T03:56:28;1.00;99.90
53310;DHT22;39197;53.200;5.792;2022-11-20T03:58:54;1.00;99.90
53310;DHT22;39197;53.200;5.792;2022-11-20T04:01:23;1.00;99.90
53310;DHT22;39197;53.200;5.792;2022-11-20T04:03:50;0.90;99.90
53310;DHT22;39197;53.200;5.792;2022-11-20T04:06:27;1.00;99.90
53310;DHT22;39197;53.200;5.792;2022-11-20T04:08:57;1.00;99.90
53310;DHT22;39197;53.200;5.792;2022-11-20T04:11:28;1.00;99.90
53310;DHT22;39197;53.200;5.792;2022-11-20T04:13:56;1.00;99.90
53310;DHT22;39197;53.200;5.792;2022-11-20T04:16:23;0.90;99.90
53310;DHT22;39197;53.200;5.792;2022-11-20T04:18:57;0.90;99.90
53310;DHT22;39197;53.200;5.792;2022-11-20T04:21:23;0.90;99.90
53310;DHT22;39197;53.200;5.792;2022-11-20T04:23:50;0.80;99.90
53310;DHT22;39197;53.200;5.792;2022-11-20T04:26:18;0.80;99.90
53310;DHT22;39197;53.200;5.792;2022-11-20T04:28:44;0.70;99.90
53310;DHT22;39197;53.200;5.792;2022-11-20T04:31:12;0.70;99.90
53310;DHT22;39197;53.200;5.792;2022-11-20T04:33:38;0.60;99.90
53310;DHT22;39197;53.200;5.792;2022-11-20T04:36:10;0.60;99.90
53310;DHT22;39197;53.200;5.792;2022-11-20T04:38:36;0.50;99.90
53310;DHT22;39197;53.200;5.792;2022-11-20T04:41:03;0.50;99.90
53310;DHT22;39197;53.200;5.792;2022-11-20T04:43:30;0.50;99.90
53310;DHT22;39197;53.200;5.792;2022-11-20T04:45:57;0.50;99.90
53310;DHT22;39197;53.200;5.792;2022-11-20T04:48:24;0.50;99.90
53310;DHT22;39197;53.200;5.792;2022-11-20T04:50:51;0.40;99.90
53310;DHT22;39197;53.200;5.792;2022-11-20T04:53:16;0.40;99.90
53310;DHT22;39197;53.200;5.792;2022-11-20T04:55:42;0.40;99.90
53310;DHT22;39197;53.200;5.792;2022-11-20T04:58:08;0.40;99.90
53310;DHT22;39197;53.200;5.792;2022-11-20T05:00:33;0.50;99.90
53310;DHT22;39197;53.200;5.792;2022-11-20T05:02:59;0.50;99.90
53310;DHT22;39197;53.200;5.792;2022-11-20T05:05:24;0.60;99.90
53310;DHT22;39197;53.200;5.792;2022-11-20T05:07:50;0.70;99.90
53310;DHT22;39197;53.200;5.792;2022-11-20T05:10:16;0.70;99.90
53310;DHT22;39197;53.200;5.792;2022-11-20T05:12:41;0.70;99.90
53310;DHT22;39197;53.200;5.792;2022-11-20T05:15:07;0.70;99.90
53310;DHT22;39197;53.200;5.792;2022-11-20T05:17:33;0.80;99.90
53310;DHT22;39197;53.200;5.792;2022-11-20T05:19:58;0.80;99.90
53310;DHT22;39197;53.200;5.792;2022-11-20T05:22:24;0.80;99.90
53310;DHT22;39197;53.200;5.792;2022-11-20T05:24:50;0.70;99.90
53310;DHT22;39197;53.200;5.792;2022-11-20T05:27:15;0.70;99.90
53310;DHT22;39197;53.200;5.792;2022-11-20T05:29:41;0.70;99.90
53310;DHT22;39197;53.200;5.792;2022-11-20T05:32:06;0.70;99.90
53310;DHT22;39197;53.200;5.792;2022-11-20T05:34:35;0.70;99.90
53310;DHT22;39197;53.200;5.792;2022-11-20T05:37:01;0.60;99.90
53310;DHT22;39197;53.200;5.792;2022-11-20T05:39:26;0.60;99.90
53310;DHT22;39197;53.200;5.792;2022-11-20T05:41:52;0.60;99.90
53310;DHT22;39197;53.200;5.792;2022-11-20T05:44:37;0.50;99.90
53310;DHT22;39197;53.200;5.792;2022-11-20T05:47:03;0.40;99.90
53310;DHT22;39197;53.200;5.792;2022-11-20T05:49:29;0.40;99.90
53310;DHT22;39197;53.200;5.792;2022-11-20T05:51:54;0.40;99.90
53310;DHT22;39197;53.200;5.792;2022-11-20T05:54:20;0.40;99.90
53310;DHT22;39197;53.200;5.792;2022-11-20T05:56:45;0.50;99.90
53310;DHT22;39197;53.200;5.792;2022-11-20T05:59:11;0.50;99.90
53310;DHT22;39197;53.200;5.792;2022-11-20T06:01:36;0.50;99.90
53310;DHT22;39197;53.200;5.792;2022-11-20T06:04:02;0.40;99.90
53310;DHT22;39197;53.200;5.792;2022-11-20T06:06:28;0.50;99.90
53310;DHT22;39197;53.200;5.792;2022-11-20T06:08:54;0.50;99.90
53310;DHT22;39197;53.200;5.792;2022-11-20T06:11:20;0.50;99.90
53310;DHT22;39197;53.200;5.792;2022-11-20T06:13:46;0.60;99.90
53310;DHT22;39197;53.200;5.792;2022-11-20T06:16:15;0.60;99.90
53310;DHT22;39197;53.200;5.792;2022-11-20T06:18:41;0.60;99.90
53310;DHT22;39197;53.200;5.792;2022-11-20T06:21:09;0.50;99.90
53310;DHT22;39197;53.200;5.792;2022-11-20T06:23:35;0.50;99.90
53310;DHT22;39197;53.200;5.792;2022-11-20T06:26:03;0.40;99.90
53310;DHT22;39197;53.200;5.792;2022-11-20T06:28:29;0.40;99.90
53310;DHT22;39197;53.200;5.792;2022-11-20T06:30:55;0.30;99.90
53310;DHT22;39197;53.200;5.792;2022-11-20T06:33:20;0.30;99.90
53310;DHT22;39197;53.200;5.792;2022-11-20T06:35:46;0.30;99.90
53310;DHT22;39197;53.200;5.792;2022-11-20T06:38:11;0.20;99.90
53310;DHT22;39197;53.200;5.792;2022-11-20T06:40:40;0.10;99.90
53310;DHT22;39197;53.200;5.792;2022-11-20T06:43:06;0.00;99.90
53310;DHT22;39197;53.200;5.792;2022-11-20T06:45:31;0.00;99.90
53310;DHT22;39197;53.200;5.792;2022-11-20T06:47:58;0.00;99.90
53310;DHT22;39197;53.200;5.792;2022-11-20T06:50:24;-0.10;99.90
53310;DHT22;39197;53.200;5.792;2022-11-20T06:52:49;-0.10;99.90
53310;DHT22;39197;53.200;5.792;2022-11-20T06:55:15;-0.10;99.90
53310;DHT22;39197;53.200;5.792;2022-11-20T06:57:40;-0.20;99.90
53310;DHT22;39197;53.200;5.792;2022-11-20T07:00:06;-0.20;99.90
53310;DHT22;39197;53.200;5.792;2022-11-20T07:02:32;-0.20;99.90
53310;DHT22;39197;53.200;5.792;2022-11-20T07:04:58;-0.20;99.90
53310;DHT22;39197;53.200;5.792;2022-11-20T07:07:23;-0.30;99.90
53310;DHT22;39197;53.200;5.792;2022-11-20T07:09:49;-0.20;99.90
53310;DHT22;39197;53.200;5.792;2022-11-20T07:12:14;-0.20;99.90
53310;DHT22;39197;53.200;5.792;2022-11-20T07:14:40;-0.20;99.90
53310;DHT22;39197;53.200;5.792;2022-11-20T07:17:06;-0.20;99.90
53310;DHT22;39197;53.200;5.792;2022-11-20T07:19:32;-0.10;99.90
53310;DHT22;39197;53.200;5.792;2022-11-20T07:21:57;-0.10;99.90
53310;DHT22;39197;53.200;5.792;2022-11-20T07:24:23;0.00;99.90
53310;DHT22;39197;53.200;5.792;2022-11-20T07:26:49;-0.10;99.90
53310;DHT22;39197;53.200;5.792;2022-11-20T07:29:15;-0.10;99.90
53310;DHT22;39197;53.200;5.792;2022-11-20T07:31:42;-0.10;99.90
53310;DHT22;39197;53.200;5.792;2022-11-20T07:34:08;-0.10;99.90
53310;DHT22;39197;53.200;5.792;2022-11-20T07:36:33;-0.10;99.90
53310;DHT22;39197;53.200;5.792;2022-11-20T07:38:59;-0.10;99.90
53310;DHT22;39197;53.200;5.792;2022-11-20T07:41:24;0.00;99.90
53310;DHT22;39197;53.200;5.792;2022-11-20T07:43:50;0.00;99.90
53310;DHT22;39197;53.200;5.792;2022-11-20T07:46:16;0.20;99.90
53310;DHT22;39197;53.200;5.792;2022-11-20T07:48:41;0.20;99.90
53310;DHT22;39197;53.200;5.792;2022-11-20T07:51:07;0.30;99.90
53310;DHT22;39197;53.200;5.792;2022-11-20T07:53:32;0.40;99.90
53310;DHT22;39197;53.200;5.792;2022-11-20T07:56:02;0.50;99.90
53310;DHT22;39197;53.200;5.792;2022-11-20T07:58:31;0.50;99.90
53310;DHT22;39197;53.200;5.792;2022-11-20T08:01:02;0.60;99.90
53310;DHT22;39197;53.200;5.792;2022-11-20T08:03:28;0.60;99.90
53310;DHT22;39197;53.200;5.792;2022-11-20T08:05:54;0.60;99.90
53310;DHT22;39197;53.200;5.792;2022-11-20T08:08:20;0.70;99.90
53310;DHT22;39197;53.200;5.792;2022-11-20T08:10:46;0.70;99.90
53310;DHT22;39197;53.200;5.792;2022-11-20T08:13:12;0.70;99.90
53310;DHT22;39197;53.200;5.792;2022-11-20T08:15:56;0.80;99.90
53310;DHT22;39197;53.200;5.792;2022-11-20T08:18:22;0.80;99.90
53310;DHT22;39197;53.200;5.792;2022-11-20T08:20:47;1.00;99.90
53310;DHT22;39197;53.200;5.792;2022-11-20T08:23:13;1.10;99.90
53310;DHT22;39197;53.200;5.792;2022-11-20T08:25:39;1.20;99.90
53310;DHT22;39197;53.200;5.792;2022-11-20T08:28:07;1.30;99.90
53310;DHT22;39197;53.200;5.792;2022-11-20T08:30:33;1.40;99.90
53310;DHT22;39197;53.200;5.792;2022-11-20T08:33:05;1.40;99.90
53310;DHT22;39197;53.200;5.792;2022-11-20T08:35:37;1.50;99.90
53310;DHT22;39197;53.200;5.792;2022-11-20T08:38:04;1.60;99.90
53310;DHT22;39197;53.200;5.792;2022-11-20T08:40:30;1.70;99.90
53310;DHT22;39197;53.200;5.792;2022-11-20T08:42:56;1.80;99.90
53310;DHT22;39197;53.200;5.792;2022-11-20T08:45:21;1.90;99.90
53310;DHT22;39197;53.200;5.792;2022-11-20T08:47:47;1.90;99.90
53310;DHT22;39197;53.200;5.792;2022-11-20T08:50:14;1.80;99.90
53310;DHT22;39197;53.200;5.792;2022-11-20T08:52:40;1.80;99.90
53310;DHT22;39197;53.200;5.792;2022-11-20T08:55:07;1.90;99.90
53310;DHT22;39197;53.200;5.792;2022-11-20T08:57:34;1.90;99.90
53310;DHT22;39197;53.200;5.792;2022-11-20T09:00:00;1.90;99.90
53310;DHT22;39197;53.200;5.792;2022-11-20T09:02:26;1.90;99.90
53310;DHT22;39197;53.200;5.792;2022-11-20T09:04:52;1.80;99.90
53310;DHT22;39197;53.200;5.792;2022-11-20T09:07:18;1.90;99.90
53310;DHT22;39197;53.200;5.792;2022-11-20T09:09:44;2.00;99.90
53310;DHT22;39197;53.200;5.792;2022-11-20T09:12:10;2.10;99.90
53310;DHT22;39197;53.200;5.792;2022-11-20T09:14:35;2.10;99.90
53310;DHT22;39197;53.200;5.792;2022-11-20T09:17:01;2.20;99.90
53310;DHT22;39197;53.200;5.792;2022-11-20T09:19:26;2.30;99.90
53310;DHT22;39197;53.200;5.792;2022-11-20T09:21:52;2.30;99.90
53310;DHT22;39197;53.200;5.792;2022-11-20T09:24:18;2.40;99.90
53310;DHT22;39197;53.200;5.792;2022-11-20T09:26:44;2.60;99.90
53310;DHT22;39197;53.200;5.792;2022-11-20T09:29:09;2.90;99.90
53310;DHT22;39197;53.200;5.792;2022-11-20T09:31:35;2.90;99.90
53310;DHT22;39197;53.200;5.792;2022-11-20T09:34:01;3.10;99.90
53310;DHT22;39197;53.200;5.792;2022-11-20T09:36:26;3.20;99.90
53310;DHT22;39197;53.200;5.792;2022-11-20T09:38:52;3.30;99.90
53310;DHT22;39197;53.200;5.792;2022-11-20T09:52:32;3.50;99.90
53310;DHT22;39197;53.200;5.792;2022-11-20T09:55:02;3.80;99.90
53310;DHT22;39197;53.200;5.792;2022-11-20T09:57:42;4.00;99.90
53310;DHT22;39197;53.200;5.792;2022-11-20T10:00:13;4.40;99.90
53310;DHT22;39197;53.200;5.792;2022-11-20T10:03:00;4.90;99.90
53310;DHT22;39197;53.200;5.792;2022-11-20T10:05:53;4.90;99.90
53310;DHT22;39197;53.200;5.792;2022-11-20T10:08:39;4.90;99.90
53310;DHT22;39197;53.200;5.792;2022-11-20T10:11:27;5.20;99.90
53310;DHT22;39197;53.200;5.792;2022-11-20T10:16:59;5.80;99.90
53310;DHT22;39197;53.200;5.792;2022-11-20T10:25:41;5.10;99.90
53310;DHT22;39197;53.200;5.792;2022-11-20T10:30:59;4.40;99.90
53310;DHT22;39197;53.200;5.792;2022-11-20T10:33:27;4.20;99.90
53310;DHT22;39197;53.200;5.792;2022-11-20T10:39:01;4.10;99.90
53310;DHT22;39197;53.200;5.792;2022-11-20T10:41:40;4.10;99.90
53310;DHT22;39197;53.200;5.792;2022-11-20T10:44:21;4.30;99.90
53310;DHT22;39197;53.200;5.792;2022-11-20T10:47:15;4.50;99.90
53310;DHT22;39197;53.200;5.792;2022-11-20T10:49:43;4.60;99.90
53310;DHT22;39197;53.200;5.792;2022-11-20T10:55:47;4.80;99.90
53310;DHT22;39197;53.200;5.792;2022-11-20T11:00:19;4.70;99.90
53310;DHT22;39197;53.200;5.792;2022-11-20T11:02:52;4.70;99.90
53310;DHT22;39197;53.200;5.792;2022-11-20T11:05:39;4.70;99.90
53310;DHT22;39197;53.200;5.792;2022-11-20T11:08:12;4.40;99.90
53310;DHT22;39197;53.200;5.792;2022-11-20T11:11:00;4.30;99.90
53310;DHT22;39197;53.200;5.792;2022-11-20T11:13:30;4.10;99.90
53310;DHT22;39197;53.200;5.792;2022-11-20T11:15:57;3.90;99.90
53310;DHT22;39197;53.200;5.792;2022-11-20T11:18:30;3.80;99.90
53310;DHT22;39197;53.200;5.792;2022-11-20T11:20:59;3.70;99.90
53310;DHT22;39197;53.200;5.792;2022-11-20T11:23:34;3.70;99.90
53310;DHT22;39197;53.200;5.792;2022-11-20T11:26:03;3.90;99.90
53310;DHT22;39197;53.200;5.792;2022-11-20T11:28:29;3.80;99.90
53310;DHT22;39197;53.200;5.792;2022-11-20T11:30:55;3.80;99.90
53310;DHT22;39197;53.200;5.792;2022-11-20T11:33:26;3.80;99.90
53310;DHT22;39197;53.200;5.792;2022-11-20T11:35:54;3.90;99.90
53310;DHT22;39197;53.200;5.792;2022-11-20T11:38:43;4.00;99.90
53310;DHT22;39197;53.200;5.792;2022-11-20T11:41:19;4.20;99.90
53310;DHT22;39197;53.200;5.792;2022-11-20T11:43:58;4.70;99.90
53310;DHT22;39197;53.200;5.792;2022-11-20T11:46:51;5.40;99.90
53310;DHT22;39197;53.200;5.792;2022-11-20T11:49:18;6.20;99.90
53310;DHT22;39197;53.200;5.792;2022-11-20T11:55:03;7.20;99.90
53310;DHT22;39197;53.200;5.792;2022-11-20T11:57:26;7.10;99.90
53310;DHT22;39197;53.200;5.792;2022-11-20T12:00:13;6.50;99.90
53310;DHT22;39197;53.200;5.792;2022-11-20T12:05:44;5.50;99.90
53310;DHT22;39197;53.200;5.792;2022-11-20T12:08:25;5.10;99.90
53310;DHT22;39197;53.200;5.792;2022-11-20T12:13:50;4.60;99.90
53310;DHT22;39197;53.200;5.792;2022-11-20T12:16:19;4.50;99.90
53310;DHT22;39197;53.200;5.792;2022-11-20T12:18:49;4.40;99.90
53310;DHT22;39197;53.200;5.792;2022-11-20T12:21:35;4.30;99.90
53310;DHT22;39197;53.200;5.792;2022-11-20T12:37:39;3.50;99.90
53310;DHT22;39197;53.200;5.792;2022-11-20T12:43:04;3.50;99.90
53310;DHT22;39197;53.200;5.792;2022-11-20T12:51:53;3.50;99.90
53310;DHT22;39197;53.200;5.792;2022-11-20T13:05:52;3.50;99.90
53310;DHT22;39197;53.200;5.792;2022-11-20T13:08:29;3.50;99.90
53310;DHT22;39197;53.200;5.792;2022-11-20T13:14:16;3.40;99.90
53310;DHT22;39197;53.200;5.792;2022-11-20T13:19:32;3.30;99.90
53310;DHT22;39197;53.200;5.792;2022-11-20T13:21:58;3.30;99.90
53310;DHT22;39197;53.200;5.792;2022-11-20T13:24:26;3.30;99.90
53310;DHT22;39197;53.200;5.792;2022-11-20T13:27:22;3.30;99.90
53310;DHT22;39197;53.200;5.792;2022-11-20T13:30:13;3.30;99.90
53310;DHT22;39197;53.200;5.792;2022-11-20T13:32:50;3.30;99.90
53310;DHT22;39197;53.200;5.792;2022-11-20T13:35:34;3.30;99.90
53310;DHT22;39197;53.200;5.792;2022-11-20T13:38:03;3.30;99.90
53310;DHT22;39197;53.200;5.792;2022-11-20T13:40:29;3.30;99.90
53310;DHT22;39197;53.200;5.792;2022-11-20T13:43:15;3.30;99.90
53310;DHT22;39197;53.200;5.792;2022-11-20T13:45:41;3.30;99.90
53310;DHT22;39197;53.200;5.792;2022-11-20T13:48:21;3.20;99.90
53310;DHT22;39197;53.200;5.792;2022-11-20T13:51:04;3.20;99.90
53310;DHT22;39197;53.200;5.792;2022-11-20T13:56:31;3.10;99.90
53310;DHT22;39197;53.200;5.792;2022-11-20T13:59:08;3.10;99.90
53310;DHT22;39197;53.200;5.792;2022-11-20T14:01:37;3.00;99.90
53310;DHT22;39197;53.200;5.792;2022-11-20T14:04:09;2.90;99.90
53310;DHT22;39197;53.200;5.792;2022-11-20T14:06:45;2.90;99.90
53310;DHT22;39197;53.200;5.792;2022-11-20T14:09:29;2.80;99.90
53310;DHT22;39197;53.200;5.792;2022-11-20T14:11:55;2.90;99.90
53310;DHT22;39197;53.200;5.792;2022-11-20T14:14:24;2.80;99.90
53310;DHT22;39197;53.200;5.792;2022-11-20T14:16:50;2.80;99.90
53310;DHT22;39197;53.200;5.792;2022-11-20T14:22:06;2.70;99.90
53310;DHT22;39197;53.200;5.792;2022-11-20T14:24:31;2.70;99.90
53310;DHT22;39197;53.200;5.792;2022-11-20T14:26:57;2.70;99.90
53310;DHT22;39197;53.200;5.792;2022-11-20T14:29:27;2.70;99.90
53310;DHT22;39197;53.200;5.792;2022-11-20T14:31:54;2.70;99.90
53310;DHT22;39197;53.200;5.792;2022-11-20T14:34:30;2.70;99.90
53310;DHT22;39197;53.200;5.792;2022-11-20T14:37:02;2.70;99.90
53310;DHT22;39197;53.200;5.792;2022-11-20T14:39:34;2.80;99.90
53310;DHT22;39197;53.200;5.792;2022-11-20T14:42:00;2.80;99.90
53310;DHT22;39197;53.200;5.792;2022-11-20T14:44:30;2.80;99.90
53310;DHT22;39197;53.200;5.792;2022-11-20T14:46:57;2.90;99.90
53310;DHT22;39197;53.200;5.792;2022-11-20T14:49:24;2.90;99.90
53310;DHT22;39197;53.200;5.792;2022-11-20T14:51:59;2.90;99.90
53310;DHT22;39197;53.200;5.792;2022-11-20T14:54:25;2.90;99.90
53310;DHT22;39197;53.200;5.792;2022-11-20T14:57:03;2.90;99.90
53310;DHT22;39197;53.200;5.792;2022-11-20T14:59:31;2.90;99.90
53310;DHT22;39197;53.200;5.792;2022-11-20T15:02:09;3.00;99.90
53310;DHT22;39197;53.200;5.792;2022-11-20T15:04:50;3.00;99.90
53310;DHT22;39197;53.200;5.792;2022-11-20T15:07:30;2.90;99.90
53310;DHT22;39197;53.200;5.792;2022-11-20T15:10:06;2.90;99.90
53310;DHT22;39197;53.200;5.792;2022-11-20T15:12:34;2.80;99.90
53310;DHT22;39197;53.200;5.792;2022-11-20T15:15:01;2.80;99.90
53310;DHT22;39197;53.200;5.792;2022-11-20T15:17:28;2.80;99.90
53310;DHT22;39197;53.200;5.792;2022-11-20T15:19:55;2.90;99.90
53310;DHT22;39197;53.200;5.792;2022-11-20T15:22:21;2.90;99.90
53310;DHT22;39197;53.200;5.792;2022-11-20T15:24:46;2.90;99.90
53310;DHT22;39197;53.200;5.792;2022-11-20T15:27:12;2.90;99.90
53310;DHT22;39197;53.200;5.792;2022-11-20T15:29:37;2.90;99.90
53310;DHT22;39197;53.200;5.792;2022-11-20T15:32:03;2.90;99.90
53310;DHT22;39197;53.200;5.792;2022-11-20T15:34:29;2.90;99.90
53310;DHT22;39197;53.200;5.792;2022-11-20T15:36:54;2.90;99.90
53310;DHT22;39197;53.200;5.792;2022-11-20T15:39:20;2.90;99.90
53310;DHT22;39197;53.200;5.792;2022-11-20T15:41:46;2.90;99.90
53310;DHT22;39197;53.200;5.792;2022-11-20T15:44:12;2.90;99.90
53310;DHT22;39197;53.200;5.792;2022-11-20T15:46:40;3.00;99.90
53310;DHT22;39197;53.200;5.792;2022-11-20T15:49:15;3.00;99.90
53310;DHT22;39197;53.200;5.792;2022-11-20T15:51:44;2.90;99.90
53310;DHT22;39197;53.200;5.792;2022-11-20T15:54:12;2.90;99.90
53310;DHT22;39197;53.200;5.792;2022-11-20T15:56:38;2.90;99.90
53310;DHT22;39197;53.200;5.792;2022-11-20T15:59:04;3.00;99.90
53310;DHT22;39197;53.200;5.792;2022-11-20T16:01:29;3.00;99.90
53310;DHT22;39197;53.200;5.792;2022-11-20T16:03:55;3.00;99.90
53310;DHT22;39197;53.200;5.792;2022-11-20T16:06:21;3.00;99.90
53310;DHT22;39197;53.200;5.792;2022-11-20T16:08:47;3.00;99.90
53310;DHT22;39197;53.200;5.792;2022-11-20T16:11:14;3.00;99.90
53310;DHT22;39197;53.200;5.792;2022-11-20T16:13:40;3.10;99.90
53310;DHT22;39197;53.200;5.792;2022-11-20T16:16:42;3.00;99.90
53310;DHT22;39197;53.200;5.792;2022-11-20T16:19:12;3.00;99.90
53310;DHT22;39197;53.200;5.792;2022-11-20T16:21:38;3.00;99.90
53310;DHT22;39197;53.200;5.792;2022-11-20T16:24:08;2.90;99.90
53310;DHT22;39197;53.200;5.792;2022-11-20T16:26:35;2.90;99.90
53310;DHT22;39197;53.200;5.792;2022-11-20T16:29:01;2.90;99.90
53310;DHT22;39197;53.200;5.792;2022-11-20T16:31:28;2.90;99.90
53310;DHT22;39197;53.200;5.792;2022-11-20T16:33:55;2.90;99.90
53310;DHT22;39197;53.200;5.792;2022-11-20T16:36:24;2.90;99.90
53310;DHT22;39197;53.200;5.792;2022-11-20T16:38:55;2.90;99.90
53310;DHT22;39197;53.200;5.792;2022-11-20T16:41:21;2.80;99.90
53310;DHT22;39197;53.200;5.792;2022-11-20T16:43:49;2.70;99.90
53310;DHT22;39197;53.200;5.792;2022-11-20T16:46:16;2.70;99.90
53310;DHT22;39197;53.200;5.792;2022-11-20T16:48:42;2.60;99.90
53310;DHT22;39197;53.200;5.792;2022-11-20T16:51:09;2.60;99.90
53310;DHT22;39197;53.200;5.792;2022-11-20T16:53:35;2.60;99.90
53310;DHT22;39197;53.200;5.792;2022-11-20T16:56:15;2.50;99.90
53310;DHT22;39197;53.200;5.792;2022-11-20T16:58:42;2.50;99.90
53310;DHT22;39197;53.200;5.792;2022-11-20T17:01:09;2.50;99.90
53310;DHT22;39197;53.200;5.792;2022-11-20T17:03:37;2.50;99.90
53310;DHT22;39197;53.200;5.792;2022-11-20T17:06:19;2.50;99.90
53310;DHT22;39197;53.200;5.792;2022-11-20T17:08:46;2.50;99.90
53310;DHT22;39197;53.200;5.792;2022-11-20T17:11:13;2.70;99.90
53310;DHT22;39197;53.200;5.792;2022-11-20T17:13:39;2.40;99.90
53310;DHT22;39197;53.200;5.792;2022-11-20T17:16:10;2.40;99.90
53310;DHT22;39197;53.200;5.792;2022-11-20T17:18:35;2.40;99.90
53310;DHT22;39197;53.200;5.792;2022-11-20T17:21:02;2.40;99.90
53310;DHT22;39197;53.200;5.792;2022-11-20T17:23:36;2.40;99.90
53310;DHT22;39197;53.200;5.792;2022-11-20T17:26:07;2.40;99.90
53310;DHT22;39197;53.200;5.792;2022-11-20T17:28:34;2.40;99.90